createdAt,value
2023-03-05T00:01:24.525Z,99264.56
2023-03-05T00:03:52.908Z,99266.44
2023-03-05T00:06:20.559Z,99264.94
2023-03-05T00:08:48.593Z,99262.16
2023-03-05T00:11:15.345Z,99258.25
2023-03-05T00:13:42.069Z,99258.09
2023-03-05T00:16:11.339Z,99244.16
2023-03-05T00:18:38.843Z,99246.59
2023-03-05T00:21:06.713Z,99241.78
2023-03-05T00:23:33.389Z,99246.97
2023-03-05T00:26:03.909Z,99243.91
2023-03-05T00:28:30.643Z,99240.09
2023-03-05T00:31:00.559Z,99234.34
2023-03-05T00:33:27.346Z,99242.31
2023-03-05T00:35:54.289Z,99240.28
2023-03-05T00:38:21.497Z,99236.38
2023-03-05T00:40:50.933Z,99233.06
2023-03-05T00:43:17.511Z,99230.84
2023-03-05T00:45:44.167Z,99226.28
2023-03-05T00:48:10.942Z,99230.09
2023-03-05T00:50:38.245Z,99219.22
2023-03-05T00:53:04.930Z,99216.75
2023-03-05T00:55:31.589Z,99217.75
2023-03-05T00:57:58.316Z,99206.91
2023-03-05T01:00:25.232Z,99210.22
2023-03-05T01:02:51.936Z,99209.88
2023-03-05T01:05:18.681Z,99203.94
2023-03-05T01:07:45.275Z,99208.94
2023-03-05T01:10:13.254Z,99201.53
2023-03-05T01:12:39.926Z,99193.38
2023-03-05T01:15:07.040Z,99192.72
2023-03-05T01:17:34.049Z,99201.44
2023-03-05T01:20:00.683Z,99199.28
2023-03-05T01:22:28.145Z,99188.91
2023-03-05T01:24:54.888Z,99178.53
2023-03-05T01:27:21.676Z,99186.88
2023-03-05T01:29:48.305Z,99181.28
2023-03-05T01:32:14.887Z,99183.16
2023-03-05T01:34:42.184Z,99185.41
2023-03-05T01:37:09.472Z,99178.66
2023-03-05T01:39:36.546Z,99178.66
2023-03-05T01:42:04.159Z,99176.50
2023-03-05T01:44:32.056Z,99170.75
2023-03-05T01:46:58.866Z,99170.94
2023-03-05T01:49:28.032Z,99172.06
2023-03-05T01:52:11.430Z,99175.84
2023-03-05T01:54:47.357Z,99166.84
2023-03-05T01:57:20.010Z,99168.53
2023-03-05T01:59:50.684Z,99168.81
2023-03-05T02:02:18.542Z,99145.38
2023-03-05T02:05:07.698Z,99164.28
2023-03-05T02:07:37.482Z,99158.72
2023-03-05T02:10:19.260Z,99160.19
2023-03-05T02:12:47.524Z,99155.19
2023-03-05T02:15:15.610Z,99157.88
2023-03-05T02:17:42.369Z,99150.00
2023-03-05T02:20:19.041Z,99150.38
2023-03-05T02:22:45.841Z,99144.06
2023-03-05T02:25:24.187Z,99142.88
2023-03-05T02:28:16.274Z,99139.44
2023-03-05T02:30:43.077Z,99142.06
2023-03-05T02:33:09.937Z,99146.03
2023-03-05T02:35:37.069Z,99142.78
2023-03-05T02:38:03.777Z,99140.19
2023-03-05T02:40:30.423Z,99141.88
2023-03-05T02:42:57.028Z,99139.81
2023-03-05T02:45:23.700Z,99135.84
2023-03-05T02:47:50.355Z,99136.47
2023-03-05T02:50:17.153Z,99127.88
2023-03-05T02:52:43.742Z,99123.78
2023-03-05T02:55:10.530Z,99124.78
2023-03-05T02:57:37.178Z,99122.69
2023-03-05T03:00:05.410Z,99113.50
2023-03-05T03:02:32.416Z,99116.81
2023-03-05T03:04:59.140Z,99104.06
2023-03-05T03:07:25.846Z,99120.56
2023-03-05T03:09:52.878Z,99105.38
2023-03-05T03:12:19.527Z,99104.53
2023-03-05T03:14:46.216Z,99106.19
2023-03-05T03:17:18.221Z,99110.28
2023-03-05T03:19:45.700Z,99109.25
2023-03-05T03:22:14.468Z,99088.31
2023-03-05T03:24:42.683Z,99097.75
2023-03-05T03:27:09.772Z,99092.03
2023-03-05T03:29:36.702Z,99090.72
2023-03-05T03:32:03.596Z,99082.75
2023-03-05T03:34:30.380Z,99083.41
2023-03-05T03:36:57.056Z,99075.16
2023-03-05T03:39:25.593Z,99071.09
2023-03-05T03:41:53.167Z,99067.09
2023-03-05T03:44:21.449Z,99062.28
2023-03-05T03:46:49.294Z,99051.84
2023-03-05T03:49:21.655Z,99061.81
2023-03-05T03:51:49.523Z,99054.22
2023-03-05T03:54:17.188Z,99041.91
2023-03-05T03:56:47.487Z,99049.69
2023-03-05T03:59:16.798Z,99045.63
2023-03-05T04:01:43.482Z,99041.94
2023-03-05T04:04:12.437Z,99049.13
2023-03-05T04:06:39.611Z,99039.31
2023-03-05T04:09:08.460Z,99037.94
2023-03-05T04:11:36.189Z,99030.41
2023-03-05T04:14:03.845Z,99027.19
2023-03-05T04:16:30.472Z,99033.38
2023-03-05T04:18:57.294Z,99029.91
2023-03-05T04:21:24.210Z,99026.94
2023-03-05T04:23:50.796Z,99019.97
2023-03-05T04:26:17.447Z,99019.22
2023-03-05T04:28:44.035Z,99020.25
2023-03-05T04:31:10.822Z,99015.16
2023-03-05T04:33:37.533Z,99018.31
2023-03-05T04:36:04.573Z,99017.44
2023-03-05T04:38:31.672Z,99013.03
2023-03-05T04:40:58.443Z,99014.34
2023-03-05T04:43:25.162Z,99004.78
2023-03-05T04:45:51.743Z,99010.06
2023-03-05T04:48:19.140Z,99004.22
2023-03-05T04:50:45.738Z,99000.88
2023-03-05T04:53:12.386Z,98992.19
2023-03-05T04:55:39.060Z,99009.03
2023-03-05T04:58:05.728Z,98994.56
2023-03-05T05:00:32.377Z,98991.59
2023-03-05T05:02:59.285Z,98990.16
2023-03-05T05:05:28.366Z,98985.13
2023-03-05T05:07:56.644Z,98983.88
2023-03-05T05:10:24.808Z,98977.03
2023-03-05T05:12:51.472Z,98989.69
2023-03-05T05:15:18.249Z,98975.78
2023-03-05T05:17:45.402Z,98971.63
2023-03-05T05:20:14.451Z,98969.97
2023-03-05T05:22:41.581Z,98973.28
2023-03-05T05:25:10.650Z,98979.22
2023-03-05T05:27:38.872Z,98976.09
2023-03-05T05:30:06.569Z,98971.00
2023-03-05T05:32:33.433Z,98978.47
2023-03-05T05:35:00.357Z,98976.72
2023-03-05T05:37:27.833Z,98974.31
2023-03-05T05:39:54.520Z,98977.75
2023-03-05T05:42:23.263Z,98979.94
2023-03-05T05:44:50.656Z,98969.56
2023-03-05T05:47:18.188Z,98972.19
2023-03-05T05:49:44.755Z,98969.59
2023-03-05T05:52:11.565Z,98977.75
2023-03-05T05:54:38.345Z,98973.09
2023-03-05T05:57:05.054Z,98976.47
2023-03-05T05:59:31.728Z,98976.63
2023-03-05T06:01:58.465Z,98982.22
2023-03-05T06:04:25.269Z,98972.72
2023-03-05T06:06:51.905Z,98978.38
2023-03-05T06:09:18.630Z,98980.41
2023-03-05T06:11:45.331Z,98975.78
2023-03-05T06:14:12.930Z,98978.28
2023-03-05T06:16:39.991Z,98974.94
2023-03-05T06:19:06.803Z,98974.75
2023-03-05T06:21:33.631Z,98977.44
2023-03-05T06:24:00.551Z,98978.94
2023-03-05T06:26:27.491Z,98982.25
2023-03-05T06:28:54.521Z,98971.63
2023-03-05T06:31:23.282Z,98962.81
2023-03-05T06:33:50.639Z,98968.09
2023-03-05T06:36:19.739Z,98958.28
2023-03-05T06:38:48.408Z,98954.88
2023-03-05T06:41:18.647Z,98952.53
2023-03-05T06:43:46.817Z,98962.72
2023-03-05T06:46:25.239Z,98964.94
2023-03-05T06:48:52.437Z,98961.97
2023-03-05T06:51:22.570Z,98963.06
2023-03-05T06:53:49.813Z,98950.69
2023-03-05T06:56:17.315Z,98951.03
2023-03-05T06:58:46.195Z,98944.56
2023-03-05T07:01:14.102Z,98951.97
2023-03-05T07:03:41.232Z,98957.88
2023-03-05T07:06:10.797Z,98946.47
2023-03-05T07:08:37.897Z,98953.06
2023-03-05T07:11:09.359Z,98952.34
2023-03-05T07:13:35.972Z,98948.41
2023-03-05T07:16:10.573Z,98947.47
2023-03-05T07:18:37.360Z,98947.31
2023-03-05T07:21:05.889Z,98949.69
2023-03-05T07:23:33.041Z,98936.31
2023-03-05T07:26:04.333Z,98947.47
2023-03-05T07:28:31.770Z,98941.72
2023-03-05T07:31:00.644Z,98941.63
2023-03-05T07:33:28.157Z,98937.97
2023-03-05T07:35:55.586Z,98938.09
2023-03-05T07:38:22.412Z,98940.06
2023-03-05T07:40:49.531Z,98934.06
2023-03-05T07:43:16.356Z,98939.66
2023-03-05T07:45:44.418Z,98946.97
2023-03-05T07:48:17.492Z,98943.88
2023-03-05T07:50:44.551Z,98934.06
2023-03-05T07:53:11.714Z,98935.72
2023-03-05T07:55:47.839Z,98941.75
2023-03-05T07:58:14.841Z,98940.91
2023-03-05T08:00:41.691Z,98933.66
2023-03-05T08:03:08.551Z,98936.81
2023-03-05T08:05:35.947Z,98950.50
2023-03-05T08:08:02.673Z,98931.41
2023-03-05T08:10:29.448Z,98941.59
2023-03-05T08:12:56.117Z,98932.69
2023-03-05T08:15:22.915Z,98934.88
2023-03-05T08:17:49.527Z,98927.50
2023-03-05T08:20:16.418Z,98926.06
2023-03-05T08:22:43.161Z,98922.41
2023-03-05T08:25:10.094Z,98931.88
2023-03-05T08:27:41.940Z,98923.59
2023-03-05T08:30:11.176Z,98920.38
2023-03-05T08:32:37.921Z,98921.06
2023-03-05T08:35:05.191Z,98910.97
2023-03-05T08:37:31.815Z,98914.53
2023-03-05T08:39:58.496Z,98913.59
2023-03-05T08:42:25.703Z,98913.00
2023-03-05T08:44:52.348Z,98906.03
2023-03-05T08:47:20.522Z,98908.72
2023-03-05T08:49:47.663Z,98911.13
2023-03-05T08:52:14.347Z,98900.94
2023-03-05T08:54:41.048Z,98897.81
2023-03-05T08:57:08.523Z,98897.00
2023-03-05T08:59:35.990Z,98894.72
2023-03-05T09:02:03.052Z,98898.66
2023-03-05T09:04:29.737Z,98893.66
2023-03-05T09:06:57.612Z,98894.63
2023-03-05T09:09:25.204Z,98889.31
2023-03-05T09:11:52.305Z,98892.22
2023-03-05T09:14:19.108Z,98887.13
2023-03-05T09:16:45.916Z,98882.56
2023-03-05T09:19:15.281Z,98881.19
2023-03-05T09:21:42.544Z,98882.00
2023-03-05T09:24:09.368Z,98880.06
2023-03-05T09:26:35.986Z,98881.78
2023-03-05T09:29:02.622Z,98879.09
2023-03-05T09:31:29.962Z,98875.25
2023-03-05T09:33:56.642Z,98875.56
2023-03-05T09:36:26.474Z,98875.88
2023-03-05T09:38:53.561Z,98874.44
2023-03-05T09:41:30.384Z,98872.25
2023-03-05T09:44:17.137Z,98872.13
2023-03-05T09:47:14.379Z,98864.16
2023-03-05T09:50:19.111Z,98873.31
2023-03-05T09:52:57.371Z,98865.69
2023-03-05T09:55:28.251Z,98866.81
2023-03-05T09:57:58.810Z,98866.81
2023-03-05T10:00:54.768Z,98862.88
2023-03-05T10:03:31.385Z,98867.25
2023-03-05T10:06:06.177Z,98864.91
2023-03-05T10:08:46.638Z,98851.00
2023-03-05T10:11:39.391Z,98852.22
2023-03-05T10:14:07.684Z,98851.19
2023-03-05T10:17:08.173Z,98856.91
2023-03-05T10:19:39.576Z,98846.47
2023-03-05T10:22:16.482Z,98843.34
2023-03-05T10:25:11.186Z,98842.81
2023-03-05T10:27:50.870Z,98836.66
2023-03-05T10:30:48.893Z,98841.09
2023-03-05T10:33:22.891Z,98823.13
2023-03-05T10:36:03.233Z,98825.06
2023-03-05T10:38:55.069Z,98824.34
2023-03-05T10:42:02.780Z,98815.25
2023-03-05T10:44:54.010Z,98815.25
2023-03-05T10:47:30.954Z,98814.69
2023-03-05T10:49:59.418Z,98807.94
2023-03-05T10:52:35.830Z,98804.75
2023-03-05T10:55:12.475Z,98801.25
2023-03-05T10:57:39.189Z,98800.38
2023-03-05T11:00:26.778Z,98804.06
2023-03-05T11:03:02.877Z,98793.81
2023-03-05T11:05:39.693Z,98800.56
2023-03-05T11:08:24.037Z,98789.22
2023-03-05T11:11:13.483Z,98791.00
2023-03-05T11:13:59.191Z,98787.78
2023-03-05T11:16:31.609Z,98791.81
2023-03-05T11:19:30.228Z,98788.94
2023-03-05T11:22:14.968Z,98789.31
2023-03-05T11:24:42.105Z,98770.31
2023-03-05T11:27:23.741Z,98775.78
2023-03-05T11:29:51.523Z,98768.50
2023-03-05T11:32:24.559Z,98762.59
2023-03-05T11:34:51.468Z,98755.38
2023-03-05T11:37:23.488Z,98751.66
2023-03-05T11:40:06.519Z,98756.31
2023-03-05T11:42:33.501Z,98751.69
2023-03-05T11:45:00.384Z,98754.00
2023-03-05T11:47:43.069Z,98750.78
2023-03-05T11:50:30.974Z,98745.31
2023-03-05T11:53:02.343Z,98746.50
2023-03-05T11:55:39.797Z,98744.19
2023-03-05T11:58:27.970Z,98748.16
2023-03-05T12:00:55.546Z,98756.56
2023-03-05T12:03:30.081Z,98748.72
2023-03-05T12:06:01.103Z,98749.31
2023-03-05T12:08:32.575Z,98733.44
2023-03-05T12:11:05.289Z,98742.47
2023-03-05T12:13:38.850Z,98742.47
2023-03-05T12:16:24.541Z,98742.66
2023-03-05T12:19:01.957Z,98732.13
2023-03-05T12:21:42.370Z,98729.03
2023-03-05T12:24:44.493Z,98726.81
2023-03-05T12:27:15.122Z,98720.31
2023-03-05T12:29:51.981Z,98716.00
2023-03-05T12:32:44.386Z,98715.38
2023-03-05T12:35:43.974Z,98714.22
2023-03-05T12:38:31.687Z,98706.16
2023-03-05T12:41:34.562Z,98700.91
2023-03-05T12:44:18.875Z,98705.41
2023-03-05T12:46:49.364Z,98708.22
2023-03-05T12:49:42.071Z,98694.03
2023-03-05T12:52:20.105Z,98693.84
2023-03-05T12:55:00.511Z,98693.19
2023-03-05T12:57:29.667Z,98683.69
2023-03-05T13:00:23.248Z,98692.88
2023-03-05T13:02:58.284Z,98686.25
2023-03-05T13:05:32.331Z,98687.16
2023-03-05T13:08:25.200Z,98685.53
2023-03-05T13:11:00.052Z,98677.44
2023-03-05T13:13:29.104Z,98680.44
2023-03-05T13:15:57.053Z,98674.91
2023-03-05T13:18:29.249Z,98671.16
2023-03-05T13:21:09.605Z,98667.63
2023-03-05T13:23:36.281Z,98668.53
2023-03-05T13:26:12.413Z,98668.09
2023-03-05T13:28:40.251Z,98668.94
2023-03-05T13:31:18.733Z,98651.97
2023-03-05T13:33:54.481Z,98656.56
2023-03-05T13:36:22.361Z,98655.13
2023-03-05T13:38:49.042Z,98636.81
2023-03-05T13:41:15.930Z,98642.88
2023-03-05T13:43:54.257Z,98647.19
2023-03-05T13:46:26.571Z,98634.69
2023-03-05T13:48:53.389Z,98639.19
2023-03-05T13:51:20.222Z,98633.16
2023-03-05T13:53:47.315Z,98644.75
2023-03-05T13:56:17.840Z,98640.81
2023-03-05T13:58:55.457Z,98640.25
2023-03-05T14:01:27.673Z,98635.41
2023-03-05T14:03:58.807Z,98640.00
2023-03-05T14:06:28.437Z,98632.31
2023-03-05T14:09:17.662Z,98624.06
2023-03-05T14:11:53.272Z,98617.31
2023-03-05T14:14:21.230Z,98621.84
2023-03-05T14:16:47.953Z,98610.28
2023-03-05T14:19:38.137Z,98604.34
2023-03-05T14:22:06.163Z,98602.94
2023-03-05T14:24:34.223Z,98603.72
2023-03-05T14:27:08.897Z,98595.53
2023-03-05T14:29:36.165Z,98591.66
2023-03-05T14:32:06.853Z,98594.81
2023-03-05T14:34:41.471Z,98592.56
2023-03-05T14:37:21.956Z,98592.91
2023-03-05T14:39:53.863Z,98578.53
2023-03-05T14:42:32.498Z,98576.84
2023-03-05T14:45:02.170Z,98569.78
2023-03-05T14:47:29.157Z,98575.28
2023-03-05T14:49:56.544Z,98565.75
2023-03-05T14:52:24.800Z,98566.56
2023-03-05T14:54:52.269Z,98562.69
2023-03-05T14:57:22.004Z,98559.03
2023-03-05T14:59:48.733Z,98556.41
2023-03-05T15:02:20.878Z,98551.69
2023-03-05T15:04:48.188Z,98545.34
2023-03-05T15:07:21.167Z,98540.47
2023-03-05T15:09:48.039Z,98533.50
2023-03-05T15:12:16.598Z,98532.81
2023-03-05T15:14:43.996Z,98521.00
2023-03-05T15:17:15.286Z,98517.91
2023-03-05T15:19:42.043Z,98517.69
2023-03-05T15:22:12.244Z,98522.75
2023-03-05T15:24:39.439Z,98518.38
2023-03-05T15:27:06.669Z,98513.19
2023-03-05T15:29:33.831Z,98521.22
2023-03-05T15:32:01.519Z,98516.00
2023-03-05T15:34:29.074Z,98512.50
2023-03-05T15:36:56.192Z,98505.88
2023-03-05T15:39:25.416Z,98505.63
2023-03-05T15:41:52.965Z,98504.34
2023-03-05T15:44:20.375Z,98507.53
2023-03-05T15:46:47.303Z,98503.38
2023-03-05T15:49:14.913Z,98515.09
2023-03-05T15:51:41.852Z,98507.28
2023-03-05T15:54:08.536Z,98517.91
2023-03-05T15:56:35.285Z,98504.63
2023-03-05T15:59:02.057Z,98504.84
2023-03-05T16:01:28.781Z,98494.22
2023-03-05T16:03:55.478Z,98491.88
2023-03-05T16:06:23.657Z,98486.22
2023-03-05T16:08:51.908Z,98486.22
2023-03-05T16:11:18.973Z,98473.69
2023-03-05T16:13:45.637Z,98478.66
2023-03-05T16:16:13.051Z,98469.56
2023-03-05T16:18:42.117Z,98483.63
2023-03-05T16:21:08.878Z,98469.47
2023-03-05T16:23:35.558Z,98466.88
2023-03-05T16:26:02.236Z,98466.28
2023-03-05T16:28:29.040Z,98470.28
2023-03-05T16:30:57.483Z,98458.34
2023-03-05T16:33:24.785Z,98464.38
2023-03-05T16:36:27.407Z,98459.75
2023-03-05T16:38:56.097Z,98453.97
2023-03-05T16:41:24.546Z,98462.16
2023-03-05T16:43:53.671Z,98456.22
2023-03-05T16:46:20.932Z,98461.19
2023-03-05T16:48:47.744Z,98467.75
2023-03-05T16:51:14.816Z,98451.44
2023-03-05T16:53:41.919Z,98457.22
2023-03-05T16:56:09.656Z,98454.47
2023-03-05T16:58:38.184Z,98448.00
2023-03-05T17:01:19.900Z,98448.06
2023-03-05T17:03:47.502Z,98448.66
2023-03-05T17:06:20.463Z,98456.69
2023-03-05T17:08:48.047Z,98455.75
2023-03-05T17:11:15.455Z,98454.56
2023-03-05T17:13:42.490Z,98450.44
2023-03-05T17:16:11.046Z,98460.22
2023-03-05T17:18:37.832Z,98459.50
2023-03-05T17:21:05.625Z,98461.13
2023-03-05T17:23:32.484Z,98454.22
2023-03-05T17:25:59.597Z,98461.38
2023-03-05T17:28:26.968Z,98466.06
2023-03-05T17:30:53.697Z,98466.41
2023-03-05T17:33:20.437Z,98461.41
2023-03-05T17:35:47.492Z,98454.25
2023-03-05T17:38:14.600Z,98462.88
2023-03-05T17:40:41.917Z,98459.38
2023-03-05T17:43:08.739Z,98463.09
2023-03-05T17:45:35.746Z,98461.63
2023-03-05T17:48:03.882Z,98458.22
2023-03-05T17:50:30.847Z,98457.59
2023-03-05T17:52:57.732Z,98448.38
2023-03-05T17:55:28.347Z,98451.06
2023-03-05T17:57:55.099Z,98449.31
2023-03-05T18:00:27.228Z,98448.38
2023-03-05T18:02:53.978Z,98439.84
2023-03-05T18:05:24.468Z,98448.75
2023-03-05T18:07:51.963Z,98450.69
2023-03-05T18:10:20.213Z,98447.34
2023-03-05T18:12:47.079Z,98449.94
2023-03-05T18:15:15.693Z,98444.28
2023-03-05T18:17:42.859Z,98451.00
2023-03-05T18:20:20.993Z,98453.84
2023-03-05T18:22:47.734Z,98452.03
2023-03-05T18:25:15.474Z,98445.66
2023-03-05T18:27:42.190Z,98451.19
2023-03-05T18:30:09.498Z,98451.88
2023-03-05T18:32:36.947Z,98443.63
2023-03-05T18:35:03.924Z,98450.69
2023-03-05T18:37:30.913Z,98436.41
2023-03-05T18:39:58.356Z,98429.22
2023-03-05T18:42:25.280Z,98433.47
2023-03-05T18:44:52.084Z,98426.13
2023-03-05T18:47:19.158Z,98432.53
2023-03-05T18:49:45.948Z,98429.22
2023-03-05T18:52:12.674Z,98425.78
2023-03-05T18:54:41.020Z,98431.13
2023-03-05T18:57:07.972Z,98427.91
2023-03-05T18:59:34.569Z,98431.56
2023-03-05T19:02:01.282Z,98423.53
2023-03-05T19:04:28.053Z,98432.56
2023-03-05T19:06:54.895Z,98422.97
2023-03-05T19:09:38.012Z,98429.91
2023-03-05T19:12:05.111Z,98431.50
2023-03-05T19:14:31.773Z,98418.66
2023-03-05T19:16:58.649Z,98428.41
2023-03-05T19:19:25.802Z,98426.53
2023-03-05T19:21:54.378Z,98416.03
2023-03-05T19:24:23.119Z,98409.31
2023-03-05T19:26:50.557Z,98412.50
2023-03-05T19:29:17.136Z,98410.00
2023-03-05T19:31:43.866Z,98407.91
2023-03-05T19:34:10.870Z,98404.47
2023-03-05T19:36:37.852Z,98408.84
2023-03-05T19:39:05.933Z,98401.88
2023-03-05T19:41:32.881Z,98400.13
2023-03-05T19:43:59.774Z,98399.19
2023-03-05T19:46:26.406Z,98399.06
2023-03-05T19:48:53.540Z,98402.38
2023-03-05T19:51:22.572Z,98397.28
2023-03-05T19:53:49.855Z,98395.78
2023-03-05T19:56:17.389Z,98393.47
2023-03-05T19:58:49.261Z,98389.69
2023-03-05T20:01:19.181Z,98382.69
2023-03-05T20:03:47.966Z,98388.03
2023-03-05T20:06:15.321Z,98384.59
2023-03-05T20:08:42.377Z,98390.47
2023-03-05T20:11:11.565Z,98375.66
2023-03-05T20:13:38.934Z,98374.00
2023-03-05T20:16:06.723Z,98374.22
2023-03-05T20:18:33.436Z,98379.28
2023-03-05T20:21:02.045Z,98370.91
2023-03-05T20:23:31.523Z,98369.03
2023-03-05T20:25:58.681Z,98372.25
2023-03-05T20:28:28.474Z,98370.00
2023-03-05T20:30:56.679Z,98367.06
2023-03-05T20:33:24.020Z,98368.00
2023-03-05T20:35:50.771Z,98365.41
2023-03-05T20:38:22.573Z,98366.47
2023-03-05T20:40:51.134Z,98362.25
2023-03-05T20:43:18.462Z,98367.19
2023-03-05T20:45:45.229Z,98360.50
2023-03-05T20:48:13.005Z,98361.66
2023-03-05T20:50:41.538Z,98359.38
2023-03-05T20:53:09.288Z,98356.56
2023-03-05T20:55:36.121Z,98353.97
2023-03-05T20:58:02.876Z,98350.78
2023-03-05T21:00:29.770Z,98350.22
2023-03-05T21:02:56.694Z,98350.59
2023-03-05T21:05:25.663Z,98350.00
2023-03-05T21:07:52.998Z,98348.94
2023-03-05T21:10:21.024Z,98345.41
2023-03-05T21:12:50.772Z,98341.88
2023-03-05T21:15:20.355Z,98339.50
2023-03-05T21:17:47.131Z,98335.34
2023-03-05T21:20:16.153Z,98329.03
2023-03-05T21:22:42.820Z,98329.69
2023-03-05T21:25:21.244Z,98327.44
2023-03-05T21:28:19.231Z,98328.63
2023-03-05T21:31:10.133Z,98323.81
2023-03-05T21:33:37.022Z,98316.69
2023-03-05T21:36:04.743Z,98306.31
2023-03-05T21:38:34.140Z,98310.25
2023-03-05T21:41:01.755Z,98301.25
2023-03-05T21:43:31.377Z,98299.72
2023-03-05T21:46:00.397Z,98297.75
2023-03-05T21:48:27.076Z,98306.84
2023-03-05T21:50:55.435Z,98287.03
2023-03-05T21:53:22.660Z,98290.41
2023-03-05T21:56:04.543Z,98288.94
2023-03-05T21:58:33.502Z,98290.88
2023-03-05T22:01:00.361Z,98284.16
2023-03-05T22:03:27.629Z,98273.28
2023-03-05T22:05:54.960Z,98280.25
2023-03-05T22:08:22.280Z,98279.66
2023-03-05T22:10:49.641Z,98268.91
2023-03-05T22:13:18.028Z,98279.19
2023-03-05T22:15:52.982Z,98276.84
2023-03-05T22:18:22.290Z,98264.81
2023-03-05T22:20:49.074Z,98253.56
2023-03-05T22:23:16.700Z,98250.19
2023-03-05T22:25:43.929Z,98237.69
2023-03-05T22:28:12.439Z,98242.19
2023-03-05T22:30:45.394Z,98241.25
2023-03-05T22:33:12.811Z,98238.28
2023-03-05T22:35:41.067Z,98236.06
2023-03-05T22:38:09.108Z,98227.31
2023-03-05T22:40:37.750Z,98227.53
2023-03-05T22:43:04.858Z,98230.88
2023-03-05T22:45:32.577Z,98224.72
2023-03-05T22:47:59.547Z,98224.47
2023-03-05T22:50:26.362Z,98220.22
2023-03-05T22:52:53.789Z,98212.94
2023-03-05T22:55:20.644Z,98210.22
2023-03-05T22:57:47.475Z,98213.16
2023-03-05T23:00:18.302Z,98203.81
2023-03-05T23:02:45.114Z,98201.84
2023-03-05T23:05:11.944Z,98198.28
2023-03-05T23:07:40.398Z,98203.09
2023-03-05T23:10:11.630Z,98190.53
2023-03-05T23:12:41.384Z,98192.53
2023-03-05T23:15:10.069Z,98189.94
2023-03-05T23:17:36.758Z,98184.28
2023-03-05T23:20:05.319Z,98172.47
2023-03-05T23:22:31.908Z,98185.94
2023-03-05T23:24:58.862Z,98184.88
2023-03-05T23:27:25.805Z,98178.03
2023-03-05T23:30:17.604Z,98181.22
2023-03-05T23:32:55.075Z,98185.34
2023-03-05T23:35:35.218Z,98181.53
2023-03-05T23:38:03.660Z,98182.25
2023-03-05T23:40:32.854Z,98172.69
2023-03-05T23:42:59.811Z,98168.44
2023-03-05T23:45:28.004Z,98166.91
2023-03-05T23:47:55.127Z,98158.66
2023-03-05T23:50:25.398Z,98163.34
2023-03-05T23:52:54.242Z,98160.75
2023-03-05T23:55:26.108Z,98163.34
2023-03-05T23:57:53.060Z,98151.94
